createdAt,value
2022-08-26T00:01:44.333Z,78.68
2022-08-26T00:04:12.393Z,78.39
2022-08-26T00:06:42.701Z,78.31
2022-08-26T00:09:13.773Z,78.12
2022-08-26T00:11:43.259Z,78.06
2022-08-26T00:14:09.885Z,77.82
2022-08-26T00:16:36.951Z,78.64
2022-08-26T00:19:07.871Z,78.85
2022-08-26T00:21:35.231Z,79.14
2022-08-26T00:24:04.303Z,78.89
2022-08-26T00:26:30.904Z,78.54
2022-08-26T00:28:57.415Z,79.01
2022-08-26T00:31:23.975Z,79.11
2022-08-26T00:33:50.542Z,78.74
2022-08-26T00:36:20.425Z,78.77
2022-08-26T00:38:48.090Z,78.86
2022-08-26T00:41:14.855Z,78.66
2022-08-26T00:43:47.216Z,78.56
2022-08-26T00:46:19.561Z,79.09
2022-08-26T00:48:50.367Z,79.11
2022-08-26T00:51:21.122Z,79.13
2022-08-26T00:53:55.137Z,78.58
2022-08-26T00:56:36.337Z,78.25
2022-08-26T00:59:07.358Z,78.02
2022-08-26T01:01:34.779Z,77.84
2022-08-26T01:04:02.013Z,78.08
2022-08-26T01:06:28.857Z,78.27
2022-08-26T01:08:56.044Z,78.17
2022-08-26T01:11:25.230Z,78.37
2022-08-26T01:13:57.218Z,78.34
2022-08-26T01:16:25.705Z,78.49
2022-08-26T01:18:57.238Z,78.37
2022-08-26T01:21:33.012Z,78.29
2022-08-26T01:24:00.010Z,78.29
2022-08-26T01:26:34.881Z,78.34
2022-08-26T01:29:05.316Z,78.35
2022-08-26T01:31:38.403Z,78.39
2022-08-26T01:34:20.327Z,78.23
2022-08-26T01:36:51.533Z,78.57
2022-08-26T01:39:19.540Z,78.65
2022-08-26T01:41:47.568Z,78.70
2022-08-26T01:44:23.601Z,78.64
2022-08-26T01:46:52.225Z,78.81
2022-08-26T01:49:22.384Z,78.48
2022-08-26T01:51:53.900Z,78.33
2022-08-26T01:54:21.203Z,78.19
2022-08-26T01:56:50.797Z,78.47
2022-08-26T01:59:20.171Z,78.27
2022-08-26T02:01:48.123Z,78.29
2022-08-26T02:04:22.368Z,78.57
2022-08-26T02:06:49.757Z,78.33
2022-08-26T02:09:18.549Z,78.24
2022-08-26T02:11:47.902Z,78.39
2022-08-26T02:14:18.888Z,78.26
2022-08-26T02:16:47.251Z,78.29
2022-08-26T02:19:18.786Z,78.25
2022-08-26T02:21:51.309Z,78.59
2022-08-26T02:24:27.392Z,78.81
2022-08-26T02:26:55.972Z,79.10
2022-08-26T02:29:31.849Z,79.25
2022-08-26T02:31:59.270Z,79.68
2022-08-26T02:34:33.025Z,79.36
2022-08-26T02:37:06.840Z,79.26
2022-08-26T02:39:35.622Z,79.35
2022-08-26T02:42:02.560Z,79.12
2022-08-26T02:44:29.635Z,78.60
2022-08-26T02:46:56.103Z,78.94
2022-08-26T02:49:23.748Z,78.98
2022-08-26T02:51:51.837Z,78.91
2022-08-26T02:54:21.230Z,79.34
2022-08-26T02:56:48.117Z,79.52
2022-08-26T02:59:15.380Z,79.40
2022-08-26T03:01:42.610Z,79.63
2022-08-26T03:04:11.332Z,80.05
2022-08-26T03:06:39.326Z,80.10
2022-08-26T03:09:09.020Z,79.96
2022-08-26T03:11:36.730Z,79.93
2022-08-26T03:14:04.449Z,80.12
2022-08-26T03:16:33.283Z,80.36
2022-08-26T03:19:01.022Z,80.04
2022-08-26T03:21:27.469Z,80.02
2022-08-26T03:23:54.209Z,79.84
2022-08-26T03:26:27.940Z,80.31
2022-08-26T03:29:14.101Z,79.77
2022-08-26T03:31:41.028Z,79.80
2022-08-26T03:34:07.593Z,79.63
2022-08-26T03:36:35.046Z,79.71
2022-08-26T03:39:01.857Z,79.65
2022-08-26T03:41:32.792Z,79.79
2022-08-26T03:44:01.715Z,80.12
2022-08-26T03:46:28.562Z,79.93
2022-08-26T03:48:55.225Z,79.80
2022-08-26T03:51:21.714Z,80.01
2022-08-26T03:53:48.269Z,80.15
2022-08-26T03:56:15.221Z,80.12
2022-08-26T03:58:42.717Z,79.68
2022-08-26T04:01:10.222Z,79.45
2022-08-26T04:03:55.626Z,79.68
2022-08-26T04:06:22.840Z,79.83
2022-08-26T04:08:51.064Z,79.75
2022-08-26T04:11:23.690Z,79.66
2022-08-26T04:13:50.972Z,79.67
2022-08-26T04:16:18.407Z,79.72
2022-08-26T04:18:46.689Z,79.63
2022-08-26T04:21:15.391Z,79.49
2022-08-26T04:23:47.091Z,79.55
2022-08-26T04:26:15.177Z,79.58
2022-08-26T04:28:41.804Z,79.25
2022-08-26T04:31:12.523Z,79.55
2022-08-26T04:33:41.768Z,79.74
2022-08-26T04:36:08.877Z,79.50
2022-08-26T04:38:37.848Z,79.42
2022-08-26T04:41:07.411Z,79.33
2022-08-26T04:43:42.603Z,79.19
2022-08-26T04:46:09.718Z,79.16
2022-08-26T04:48:41.015Z,79.40
2022-08-26T04:51:08.420Z,79.40
2022-08-26T04:53:36.948Z,79.49
2022-08-26T04:56:04.367Z,79.40
2022-08-26T04:58:31.905Z,79.25
2022-08-26T05:00:58.520Z,79.25
2022-08-26T05:03:27.235Z,79.40
2022-08-26T05:05:57.995Z,79.30
2022-08-26T05:08:24.607Z,79.39
2022-08-26T05:10:57.125Z,79.51
2022-08-26T05:13:26.941Z,79.37
2022-08-26T05:15:54.503Z,79.33
2022-08-26T05:18:29.987Z,79.24
2022-08-26T05:20:56.492Z,79.33
2022-08-26T05:23:24.748Z,78.96
2022-08-26T05:25:58.989Z,78.75
2022-08-26T05:28:29.163Z,78.72
2022-08-26T05:30:56.346Z,78.55
2022-08-26T05:33:23.508Z,78.78
2022-08-26T05:35:50.040Z,78.72
2022-08-26T05:38:19.580Z,79.05
2022-08-26T05:40:49.123Z,79.43
2022-08-26T05:43:20.334Z,78.97
2022-08-26T05:45:49.189Z,79.28
2022-08-26T05:48:18.042Z,79.08
2022-08-26T05:50:47.858Z,79.12
2022-08-26T05:53:17.484Z,79.36
2022-08-26T05:55:56.608Z,79.49
2022-08-26T05:58:26.729Z,79.09
2022-08-26T06:01:13.204Z,78.98
2022-08-26T06:03:44.463Z,78.63
2022-08-26T06:06:20.164Z,78.95
2022-08-26T06:08:54.664Z,78.80
2022-08-26T06:11:26.519Z,78.75
2022-08-26T06:13:54.871Z,79.01
2022-08-26T06:16:24.025Z,78.60
2022-08-26T06:18:52.122Z,78.56
2022-08-26T06:21:20.043Z,78.54
2022-08-26T06:24:07.437Z,78.73
2022-08-26T06:26:35.743Z,78.54
2022-08-26T06:29:05.257Z,78.74
2022-08-26T06:31:34.082Z,78.29
2022-08-26T06:34:00.809Z,78.24
2022-08-26T06:36:29.298Z,77.84
2022-08-26T06:39:00.663Z,78.15
2022-08-26T06:41:27.638Z,78.01
2022-08-26T06:43:54.344Z,77.59
2022-08-26T06:46:21.976Z,77.26
2022-08-26T06:48:49.101Z,77.30
2022-08-26T06:51:37.219Z,77.35
2022-08-26T06:54:05.482Z,77.36
2022-08-26T06:56:42.682Z,77.11
2022-08-26T06:59:11.255Z,76.65
2022-08-26T07:01:43.098Z,76.44
2022-08-26T07:04:11.806Z,75.91
2022-08-26T07:06:41.326Z,76.32
2022-08-26T07:09:10.242Z,76.63
2022-08-26T07:11:38.830Z,75.78
2022-08-26T07:14:06.538Z,75.99
2022-08-26T07:16:33.756Z,75.67
2022-08-26T07:19:03.526Z,75.67
2022-08-26T07:21:39.098Z,75.98
2022-08-26T07:24:06.173Z,75.97
2022-08-26T07:26:32.706Z,75.81
2022-08-26T07:29:00.805Z,75.59
2022-08-26T07:31:35.988Z,75.29
2022-08-26T07:34:07.600Z,75.64
2022-08-26T07:36:34.603Z,75.25
2022-08-26T07:39:01.126Z,75.59
2022-08-26T07:43:59.518Z,75.16
2022-08-26T07:46:27.190Z,75.44
2022-08-26T07:48:57.280Z,75.18
2022-08-26T07:51:24.989Z,74.77
2022-08-26T07:53:53.154Z,74.56
2022-08-26T07:56:23.299Z,74.40
2022-08-26T07:58:52.273Z,73.66
2022-08-26T08:01:20.585Z,74.68
2022-08-26T08:03:48.068Z,74.19
2022-08-26T08:06:18.378Z,74.57
2022-08-26T08:08:45.126Z,74.31
2022-08-26T08:11:11.987Z,74.00
2022-08-26T08:13:38.684Z,74.70
2022-08-26T08:16:05.730Z,74.62
2022-08-26T08:18:32.434Z,74.26
2022-08-26T08:21:21.073Z,73.71
2022-08-26T08:23:48.282Z,73.35
2022-08-26T08:26:15.453Z,73.52
2022-08-26T08:28:43.502Z,73.34
2022-08-26T08:31:19.224Z,73.60
2022-08-26T08:33:55.242Z,73.63
2022-08-26T08:36:22.819Z,73.48
2022-08-26T08:38:49.662Z,73.83
2022-08-26T08:41:26.350Z,73.57
2022-08-26T08:43:55.325Z,73.34
2022-08-26T08:46:22.774Z,72.96
2022-08-26T08:48:56.853Z,73.74
2022-08-26T08:51:42.306Z,73.22
2022-08-26T08:54:10.633Z,73.12
2022-08-26T08:56:37.602Z,73.14
2022-08-26T08:59:24.101Z,73.01
2022-08-26T09:02:05.330Z,72.85
2022-08-26T09:05:03.327Z,72.58
2022-08-26T09:07:38.197Z,72.04
2022-08-26T09:10:29.493Z,72.68
2022-08-26T09:12:56.707Z,73.10
2022-08-26T09:15:30.635Z,72.88
2022-08-26T09:18:18.805Z,72.80
2022-08-26T09:21:08.089Z,72.10
2022-08-26T09:23:37.072Z,72.19
2022-08-26T09:26:13.365Z,71.52
2022-08-26T09:28:42.888Z,71.95
2022-08-26T09:31:21.506Z,71.97
2022-08-26T09:34:04.857Z,72.50
2022-08-26T09:36:41.456Z,71.26
2022-08-26T09:39:28.094Z,71.53
2022-08-26T09:42:25.353Z,71.89
2022-08-26T09:44:58.662Z,71.66
2022-08-26T09:47:31.882Z,71.34
2022-08-26T09:50:32.757Z,71.36
2022-08-26T09:53:05.262Z,71.45
2022-08-26T09:55:38.302Z,71.47
2022-08-26T09:58:08.783Z,70.86
2022-08-26T10:00:42.083Z,70.98
2022-08-26T10:03:25.134Z,70.34
2022-08-26T10:05:59.085Z,70.39
2022-08-26T10:08:32.331Z,69.46
2022-08-26T10:11:02.319Z,69.59
2022-08-26T10:13:35.510Z,68.75
2022-08-26T10:16:18.945Z,69.10
2022-08-26T10:18:50.748Z,68.91
2022-08-26T10:21:32.162Z,69.73
2022-08-26T10:24:02.016Z,69.46
2022-08-26T10:26:58.726Z,68.36
2022-08-26T10:29:39.865Z,68.93
2022-08-26T10:32:14.058Z,68.20
2022-08-26T10:34:41.802Z,68.31
2022-08-26T10:37:18.306Z,68.61
2022-08-26T10:40:02.389Z,68.50
2022-08-26T10:42:42.673Z,68.53
2022-08-26T10:45:26.204Z,68.55
2022-08-26T10:47:58.602Z,68.27
2022-08-26T10:50:41.912Z,67.56
2022-08-26T10:53:25.123Z,67.95
2022-08-26T10:56:15.703Z,67.32
2022-08-26T10:59:06.562Z,67.21
2022-08-26T11:02:10.552Z,67.09
2022-08-26T11:04:59.202Z,67.21
2022-08-26T11:07:36.632Z,66.11
2022-08-26T11:10:06.720Z,65.56
2022-08-26T11:12:38.793Z,66.14
2022-08-26T11:15:08.204Z,66.27
2022-08-26T11:17:44.548Z,66.41
2022-08-26T11:20:23.947Z,66.51
2022-08-26T11:22:52.812Z,66.05
2022-08-26T11:25:21.553Z,65.84
2022-08-26T11:27:50.710Z,65.71
2022-08-26T11:30:19.535Z,66.46
2022-08-26T11:32:53.606Z,65.96
2022-08-26T11:35:20.453Z,65.36
2022-08-26T11:38:16.120Z,65.14
2022-08-26T11:40:45.003Z,66.25
2022-08-26T11:43:23.865Z,65.48
2022-08-26T11:46:09.247Z,65.70
2022-08-26T11:48:43.413Z,65.30
2022-08-26T11:51:13.435Z,65.90
2022-08-26T11:53:43.083Z,65.86
2022-08-26T11:56:17.338Z,65.73
2022-08-26T11:58:46.806Z,65.87
2022-08-26T12:01:26.509Z,65.50
2022-08-26T12:03:55.533Z,64.99
2022-08-26T12:06:28.241Z,65.33
2022-08-26T12:08:59.945Z,65.22
2022-08-26T12:11:31.022Z,65.01
2022-08-26T12:14:04.754Z,64.99
2022-08-26T12:16:40.273Z,65.42
2022-08-26T12:19:26.176Z,65.23
2022-08-26T12:22:06.934Z,65.40
2022-08-26T12:24:33.579Z,65.80
2022-08-26T12:27:15.596Z,65.36
2022-08-26T12:29:42.454Z,66.10
2022-08-26T12:32:18.237Z,66.03
2022-08-26T12:34:48.991Z,67.64
2022-08-26T12:37:15.807Z,67.67
2022-08-26T12:39:45.418Z,67.90
2022-08-26T12:42:17.552Z,68.02
2022-08-26T12:44:53.173Z,67.12
2022-08-26T12:47:43.940Z,68.25
2022-08-26T12:50:19.513Z,67.32
2022-08-26T12:53:13.549Z,67.48
2022-08-26T12:55:42.570Z,67.06
2022-08-26T12:58:10.208Z,67.13
2022-08-26T13:00:40.628Z,66.74
2022-08-26T13:03:29.129Z,66.84
2022-08-26T13:06:17.214Z,67.09
2022-08-26T13:08:52.542Z,67.84
2022-08-26T13:11:22.441Z,68.51
2022-08-26T13:16:23.188Z,67.43
2022-08-26T13:18:53.004Z,67.42
2022-08-26T13:21:23.443Z,67.38
2022-08-26T13:23:51.297Z,67.29
2022-08-26T13:26:18.873Z,66.97
2022-08-26T13:28:45.814Z,66.44
2022-08-26T13:31:29.361Z,67.17
2022-08-26T13:33:57.054Z,66.35
2022-08-26T13:36:23.932Z,66.10
2022-08-26T13:38:52.081Z,66.65
2022-08-26T13:41:19.212Z,64.84
2022-08-26T13:43:55.860Z,64.25
2022-08-26T13:46:22.404Z,64.25
2022-08-26T13:48:49.067Z,64.68
2022-08-26T13:51:16.499Z,63.59
2022-08-26T13:53:43.013Z,63.63
2022-08-26T13:56:11.125Z,64.02
2022-08-26T13:58:37.789Z,63.71
2022-08-26T14:01:04.347Z,63.98
2022-08-26T14:03:30.915Z,64.03
2022-08-26T14:05:57.449Z,63.46
2022-08-26T14:08:24.107Z,63.82
2022-08-26T14:10:50.702Z,64.04
2022-08-26T14:13:18.330Z,64.19
2022-08-26T14:15:44.985Z,63.81
2022-08-26T14:18:16.899Z,64.36
2022-08-26T14:20:49.642Z,64.55
2022-08-26T14:23:18.007Z,65.16
2022-08-26T14:25:44.711Z,65.26
2022-08-26T14:28:12.009Z,65.42
2022-08-26T14:30:41.826Z,65.71
2022-08-26T14:33:12.161Z,65.86
2022-08-26T14:35:39.508Z,66.61
2022-08-26T14:38:06.268Z,65.26
2022-08-26T14:40:37.602Z,65.57
2022-08-26T14:43:05.447Z,65.05
2022-08-26T14:45:35.513Z,65.56
2022-08-26T14:48:02.129Z,65.06
2022-08-26T14:50:28.662Z,64.88
2022-08-26T14:53:13.823Z,65.21
2022-08-26T14:55:42.238Z,65.09
2022-08-26T14:58:09.988Z,64.76
2022-08-26T15:00:37.635Z,64.20
2022-08-26T15:03:04.842Z,64.25
2022-08-26T15:05:31.554Z,64.50
2022-08-26T15:07:58.011Z,64.76
2022-08-26T15:10:24.711Z,63.27
2022-08-26T15:12:51.279Z,63.72
2022-08-26T15:15:18.999Z,63.18
2022-08-26T15:17:45.558Z,63.23
2022-08-26T15:20:12.685Z,62.08
2022-08-26T15:22:39.893Z,63.13
2022-08-26T15:25:08.103Z,62.25
2022-08-26T15:27:34.797Z,62.03
2022-08-26T15:30:04.092Z,62.79
2022-08-26T15:32:30.710Z,62.72
2022-08-26T15:34:57.226Z,62.80
2022-08-26T15:37:24.023Z,63.48
2022-08-26T15:39:50.581Z,63.48
2022-08-26T15:42:17.124Z,64.02
2022-08-26T15:44:46.567Z,64.31
2022-08-26T15:47:13.193Z,64.06
2022-08-26T15:49:40.686Z,64.08
2022-08-26T15:52:07.822Z,63.76
2022-08-26T15:54:35.158Z,63.73
2022-08-26T15:57:02.870Z,64.71
2022-08-26T15:59:32.992Z,65.55
2022-08-26T16:02:00.288Z,65.35
2022-08-26T16:04:27.139Z,65.82
2022-08-26T16:06:54.800Z,65.66
2022-08-26T16:09:24.269Z,66.66
2022-08-26T16:11:51.697Z,66.10
2022-08-26T16:14:18.201Z,66.47
2022-08-26T16:16:44.772Z,66.33
2022-08-26T16:19:11.655Z,66.57
2022-08-26T16:21:39.498Z,65.93
2022-08-26T16:24:06.366Z,65.13
2022-08-26T16:26:36.276Z,65.28
2022-08-26T16:29:06.654Z,65.89
2022-08-26T16:31:33.845Z,65.73
2022-08-26T16:34:00.575Z,65.50
2022-08-26T16:36:27.274Z,65.63
2022-08-26T16:38:56.152Z,65.00
2022-08-26T16:41:24.354Z,64.94
2022-08-26T16:43:50.934Z,64.94
2022-08-26T16:46:18.024Z,64.67
2022-08-26T16:48:45.364Z,64.53
2022-08-26T16:51:16.053Z,64.87
2022-08-26T16:53:44.314Z,64.77
2022-08-26T16:56:16.363Z,65.00
2022-08-26T16:58:43.304Z,64.76
2022-08-26T17:01:10.396Z,65.64
2022-08-26T17:03:37.275Z,65.13
2022-08-26T17:06:03.885Z,64.78
2022-08-26T17:08:30.386Z,64.90
2022-08-26T17:11:00.582Z,65.38
2022-08-26T17:13:35.581Z,64.90
2022-08-26T17:16:04.976Z,64.59
2022-08-26T17:18:32.372Z,64.41
2022-08-26T17:21:08.306Z,64.23
2022-08-26T17:23:36.130Z,63.87
2022-08-26T17:26:02.848Z,63.94
2022-08-26T17:28:29.471Z,64.27
2022-08-26T17:30:57.642Z,64.16
2022-08-26T17:33:25.347Z,64.04
2022-08-26T17:35:52.917Z,64.02
2022-08-26T17:38:20.772Z,64.10
2022-08-26T17:40:47.407Z,63.57
2022-08-26T17:43:13.914Z,63.85
2022-08-26T17:45:41.047Z,63.38
2022-08-26T17:48:08.187Z,63.68
2022-08-26T17:50:35.279Z,63.96
2022-08-26T17:53:01.788Z,63.22
2022-08-26T17:55:29.038Z,63.17
2022-08-26T17:57:55.606Z,62.75
2022-08-26T18:00:26.469Z,63.73
2022-08-26T18:02:54.759Z,63.13
2022-08-26T18:05:21.833Z,63.09
2022-08-26T18:07:48.592Z,63.04
2022-08-26T18:10:18.257Z,62.83
2022-08-26T18:12:45.213Z,62.53
2022-08-26T18:15:15.494Z,63.04
2022-08-26T18:17:42.275Z,63.20
2022-08-26T18:20:11.712Z,63.22
2022-08-26T18:22:38.267Z,63.76
2022-08-26T18:25:06.242Z,64.05
2022-08-26T18:27:33.062Z,63.42
2022-08-26T18:29:59.969Z,63.69
2022-08-26T18:32:26.447Z,63.82
2022-08-26T18:34:53.197Z,63.16
2022-08-26T18:37:19.724Z,63.08
2022-08-26T18:39:46.312Z,63.08
2022-08-26T18:42:12.987Z,62.69
2022-08-26T18:44:39.506Z,63.45
2022-08-26T18:47:06.121Z,63.15
2022-08-26T18:49:32.622Z,63.26
2022-08-26T18:51:59.116Z,62.90
2022-08-26T18:54:25.738Z,62.94
2022-08-26T18:56:52.510Z,62.94
2022-08-26T18:59:19.515Z,63.30
2022-08-26T19:01:53.367Z,62.76
2022-08-26T19:04:20.026Z,63.14
2022-08-26T19:06:48.959Z,62.92
2022-08-26T19:09:18.048Z,62.80
2022-08-26T19:11:46.006Z,63.04
2022-08-26T19:14:14.985Z,63.14
2022-08-26T19:16:44.333Z,62.57
2022-08-26T19:19:10.906Z,62.89
2022-08-26T19:21:37.997Z,62.60
2022-08-26T19:24:09.344Z,62.21
2022-08-26T19:26:36.537Z,62.54
2022-08-26T19:29:03.807Z,62.71
2022-08-26T19:31:31.212Z,62.45
2022-08-26T19:33:58.093Z,63.00
2022-08-26T19:36:26.612Z,62.71
2022-08-26T19:38:54.082Z,63.83
2022-08-26T19:41:29.031Z,62.75
2022-08-26T19:44:06.901Z,62.78
2022-08-26T19:46:33.382Z,63.11
2022-08-26T19:48:59.920Z,63.38
2022-08-26T19:51:31.167Z,62.86
2022-08-26T19:53:59.330Z,63.00
2022-08-26T19:56:27.975Z,62.90
2022-08-26T19:58:55.206Z,62.95
2022-08-26T20:01:22.076Z,63.14
2022-08-26T20:03:48.893Z,63.19
2022-08-26T20:06:18.198Z,63.12
2022-08-26T20:08:44.906Z,63.37
2022-08-26T20:11:15.163Z,63.03
2022-08-26T20:13:42.887Z,63.72
2022-08-26T20:16:11.841Z,63.39
2022-08-26T20:18:59.111Z,62.90
2022-08-26T20:21:26.556Z,63.36
2022-08-26T20:23:55.027Z,63.32
2022-08-26T20:26:21.547Z,63.46
2022-08-26T20:28:48.129Z,63.45
2022-08-26T20:31:19.134Z,63.83
2022-08-26T20:33:46.580Z,63.92
2022-08-26T20:36:14.849Z,64.31
2022-08-26T20:38:41.402Z,63.92
2022-08-26T20:41:07.930Z,64.01
2022-08-26T20:43:34.381Z,63.89
2022-08-26T20:46:00.978Z,64.04
2022-08-26T20:48:27.550Z,64.41
2022-08-26T20:50:59.171Z,64.03
2022-08-26T20:53:27.987Z,64.00
2022-08-26T20:55:58.636Z,64.25
2022-08-26T20:58:25.185Z,64.70
2022-08-26T21:00:52.253Z,64.73
2022-08-26T21:03:18.770Z,64.94
2022-08-26T21:05:45.318Z,64.89
2022-08-26T21:08:12.522Z,65.11
2022-08-26T21:10:39.281Z,65.38
2022-08-26T21:13:06.625Z,65.16
2022-08-26T21:15:33.586Z,65.17
2022-08-26T21:18:00.147Z,65.18
2022-08-26T21:20:26.659Z,65.69
2022-08-26T21:22:53.126Z,65.02
2022-08-26T21:25:19.615Z,65.40
2022-08-26T21:27:46.159Z,65.39
2022-08-26T21:30:14.729Z,65.27
2022-08-26T21:32:41.498Z,65.08
2022-08-26T21:35:08.955Z,65.37
2022-08-26T21:37:35.460Z,65.15
2022-08-26T21:40:03.751Z,65.59
2022-08-26T21:42:33.360Z,65.57
2022-08-26T21:45:00.333Z,65.77
2022-08-26T21:47:27.513Z,65.52
2022-08-26T21:49:54.109Z,66.26
2022-08-26T21:52:21.347Z,66.96
2022-08-26T21:54:49.191Z,66.48
2022-08-26T21:57:16.101Z,66.28
2022-08-26T21:59:42.594Z,65.97
2022-08-26T22:02:09.176Z,65.62
2022-08-26T22:04:36.072Z,66.72
2022-08-26T22:07:03.326Z,67.10
2022-08-26T22:09:31.617Z,66.31
2022-08-26T22:11:59.025Z,67.14
2022-08-26T22:14:30.645Z,67.76
2022-08-26T22:16:58.837Z,67.62
2022-08-26T22:19:25.776Z,67.70
2022-08-26T22:21:54.209Z,65.46
2022-08-26T22:24:23.051Z,65.13
2022-08-26T22:26:50.242Z,65.14
2022-08-26T22:29:18.791Z,65.76
2022-08-26T22:31:45.538Z,65.42
2022-08-26T22:34:15.729Z,65.72
2022-08-26T22:36:44.946Z,65.84
2022-08-26T22:39:18.653Z,66.02
2022-08-26T22:41:46.581Z,66.07
2022-08-26T22:44:13.059Z,65.72
2022-08-26T22:46:41.214Z,65.49
2022-08-26T22:49:09.889Z,66.00
2022-08-26T22:51:36.483Z,65.64
2022-08-26T22:54:03.010Z,66.25
2022-08-26T22:56:29.967Z,66.67
2022-08-26T22:58:56.422Z,66.87
2022-08-26T23:01:22.986Z,66.76
2022-08-26T23:03:49.567Z,67.02
2022-08-26T23:06:16.422Z,66.78
2022-08-26T23:08:45.237Z,67.15
2022-08-26T23:11:13.009Z,66.25
2022-08-26T23:13:40.331Z,66.63
2022-08-26T23:16:10.911Z,66.59
2022-08-26T23:18:38.475Z,66.20
2022-08-26T23:21:05.160Z,66.50
2022-08-26T23:23:31.958Z,66.12
2022-08-26T23:25:58.498Z,65.59
2022-08-26T23:28:25.752Z,66.01
2022-08-26T23:30:53.632Z,65.56
2022-08-26T23:33:20.750Z,66.74
2022-08-26T23:35:47.240Z,66.81
2022-08-26T23:38:14.808Z,66.48
2022-08-26T23:40:41.894Z,65.99
2022-08-26T23:43:11.227Z,65.31
2022-08-26T23:45:38.121Z,65.36
2022-08-26T23:48:05.059Z,65.44
2022-08-26T23:50:50.614Z,65.37
2022-08-26T23:53:21.791Z,65.66
2022-08-26T23:55:51.324Z,66.04
2022-08-26T23:58:20.304Z,65.64
